createdAt,value
2018-05-23T00:00:49.869Z,1009.54
2018-05-23T00:01:49.803Z,1009.48
2018-05-23T00:02:49.727Z,1009.52
2018-05-23T00:03:49.655Z,1009.48
2018-05-23T00:04:49.599Z,1009.47
2018-05-23T00:05:49.514Z,1009.46
2018-05-23T00:06:49.446Z,1009.44
2018-05-23T00:07:49.368Z,1009.46
2018-05-23T00:08:49.328Z,1009.50
2018-05-23T00:09:49.228Z,1009.44
2018-05-23T00:10:49.161Z,1009.46
2018-05-23T00:11:49.085Z,1009.44
2018-05-23T00:12:49.017Z,1009.47
2018-05-23T00:13:48.939Z,1009.49
2018-05-23T00:14:48.870Z,1009.49
2018-05-23T00:15:48.806Z,1009.46
2018-05-23T00:16:48.726Z,1009.51
2018-05-23T00:17:48.660Z,1009.47
2018-05-23T00:18:48.593Z,1009.52
2018-05-23T00:19:48.515Z,1009.52
2018-05-23T00:20:48.441Z,1009.54
2018-05-23T00:21:48.372Z,1009.51
2018-05-23T00:22:48.295Z,1009.50
2018-05-23T00:23:48.230Z,1009.51
2018-05-23T00:24:48.154Z,1009.51
2018-05-23T00:25:48.087Z,1009.50
2018-05-23T00:26:48.009Z,1009.52
2018-05-23T00:27:47.941Z,1009.53
2018-05-23T00:28:47.868Z,1009.52
2018-05-23T00:29:47.800Z,1009.58
2018-05-23T00:30:47.725Z,1009.56
2018-05-23T00:31:47.675Z,1009.54
2018-05-23T00:32:47.585Z,1009.59
2018-05-23T00:33:47.513Z,1009.62
2018-05-23T00:34:47.444Z,1009.60
2018-05-23T00:35:47.363Z,1009.56
2018-05-23T00:36:47.313Z,1009.59
2018-05-23T00:37:47.270Z,1009.59
2018-05-23T00:38:47.162Z,1009.58
2018-05-23T00:39:47.099Z,1009.57
2018-05-23T00:40:47.011Z,1009.58
2018-05-23T00:41:46.941Z,1009.56
2018-05-23T00:42:46.863Z,1009.59
2018-05-23T00:43:46.812Z,1009.57
2018-05-23T00:44:46.727Z,1009.59
2018-05-23T00:45:46.660Z,1009.59
2018-05-23T00:46:46.587Z,1009.56
2018-05-23T00:47:46.506Z,1009.53
2018-05-23T00:48:46.435Z,1009.53
2018-05-23T00:49:46.367Z,1009.53
2018-05-23T00:50:46.295Z,1009.56
2018-05-23T00:51:46.228Z,1009.57
2018-05-23T00:52:46.146Z,1009.56
2018-05-23T00:53:46.080Z,1009.58
2018-05-23T00:54:46.014Z,1009.56
2018-05-23T00:55:45.938Z,1009.60
2018-05-23T00:56:45.873Z,1009.57
2018-05-23T00:57:45.805Z,1009.56
2018-05-23T00:58:45.735Z,1009.56
2018-05-23T00:59:45.650Z,1009.54
2018-05-23T01:00:45.587Z,1009.54
2018-05-23T01:01:45.502Z,1009.54
2018-05-23T01:02:45.441Z,1009.53
2018-05-23T01:03:45.366Z,1009.53
2018-05-23T01:04:45.359Z,1009.52
2018-05-23T01:05:45.224Z,1009.51
2018-05-23T01:06:45.158Z,1009.55
2018-05-23T01:07:45.080Z,1009.53
2018-05-23T01:08:45.009Z,1009.56
2018-05-23T01:09:45.016Z,1009.55
2018-05-23T01:10:44.902Z,1009.55
2018-05-23T01:11:44.834Z,1009.60
2018-05-23T01:12:44.724Z,1009.62
2018-05-23T01:13:44.650Z,1009.60
2018-05-23T01:14:44.583Z,1009.60
2018-05-23T01:15:44.510Z,1009.59
2018-05-23T01:16:44.438Z,1009.62
2018-05-23T01:17:44.367Z,1009.57
2018-05-23T01:18:44.292Z,1009.63
2018-05-23T01:19:44.225Z,1009.59
2018-05-23T01:20:44.150Z,1009.62
2018-05-23T01:21:44.082Z,1009.58
2018-05-23T01:22:44.006Z,1009.58
2018-05-23T01:23:43.936Z,1009.56
2018-05-23T01:24:43.865Z,1009.62
2018-05-23T01:25:43.793Z,1009.60
2018-05-23T01:26:43.721Z,1009.58
2018-05-23T01:27:43.650Z,1009.53
2018-05-23T01:28:43.581Z,1009.57
2018-05-23T01:29:43.507Z,1009.59
2018-05-23T01:30:43.429Z,1009.58
2018-05-23T01:31:43.361Z,1009.59
2018-05-23T01:32:43.293Z,1009.61
2018-05-23T01:33:43.219Z,1009.57
2018-05-23T01:34:43.152Z,1009.57
2018-05-23T01:35:43.079Z,1009.58
2018-05-23T01:36:43.016Z,1009.57
2018-05-23T01:37:42.941Z,1009.56
2018-05-23T01:38:42.861Z,1009.52
2018-05-23T01:39:42.805Z,1009.53
2018-05-23T01:40:42.719Z,1009.56
2018-05-23T01:41:42.656Z,1009.59
2018-05-23T01:42:42.573Z,1009.59
2018-05-23T01:43:42.507Z,1009.65
2018-05-23T01:44:42.434Z,1009.63
2018-05-23T01:45:42.362Z,1009.63
2018-05-23T01:46:42.334Z,1009.61
2018-05-23T01:47:42.316Z,1009.59
2018-05-23T01:48:42.141Z,1009.60
2018-05-23T01:49:42.125Z,1009.63
2018-05-23T01:50:42.005Z,1009.63
2018-05-23T01:51:41.930Z,1009.62
2018-05-23T01:52:41.861Z,1009.61
2018-05-23T01:53:41.791Z,1009.63
2018-05-23T01:54:41.717Z,1009.60
2018-05-23T01:55:41.645Z,1009.57
2018-05-23T01:56:41.585Z,1009.58
2018-05-23T01:57:41.502Z,1009.57
2018-05-23T01:58:41.429Z,1009.54
2018-05-23T01:59:41.356Z,1009.58
2018-05-23T02:00:41.290Z,1009.58
2018-05-23T02:01:41.219Z,1009.61
2018-05-23T02:02:41.146Z,1009.56
2018-05-23T02:03:41.070Z,1009.58
2018-05-23T02:04:40.999Z,1009.58
2018-05-23T02:05:40.937Z,1009.58
2018-05-23T02:06:40.850Z,1009.62
2018-05-23T02:07:40.783Z,1009.56
2018-05-23T02:08:40.713Z,1009.59
2018-05-23T02:09:40.650Z,1009.59
2018-05-23T02:10:40.567Z,1009.67
2018-05-23T02:11:40.499Z,1009.70
2018-05-23T02:12:40.422Z,1009.70
2018-05-23T02:13:40.359Z,1009.74
2018-05-23T02:14:40.280Z,1009.75
2018-05-23T02:15:40.220Z,1009.71
2018-05-23T02:16:40.135Z,1009.74
2018-05-23T02:17:40.067Z,1009.71
2018-05-23T02:18:39.995Z,1009.70
2018-05-23T02:19:39.923Z,1009.72
2018-05-23T02:20:39.849Z,1009.73
2018-05-23T02:21:39.779Z,1009.70
2018-05-23T02:22:39.708Z,1009.74
2018-05-23T02:23:39.630Z,1009.74
2018-05-23T02:24:39.561Z,1009.72
2018-05-23T02:25:39.503Z,1009.72
2018-05-23T02:26:39.421Z,1009.71
2018-05-23T02:27:39.351Z,1009.74
2018-05-23T02:28:39.284Z,1009.71
2018-05-23T02:29:39.198Z,1009.68
2018-05-23T02:30:39.131Z,1009.66
2018-05-23T02:31:39.065Z,1009.69
2018-05-23T02:32:38.988Z,1009.66
2018-05-23T02:33:38.914Z,1009.68
2018-05-23T02:34:38.845Z,1009.66
2018-05-23T02:35:38.785Z,1009.65
2018-05-23T02:36:38.703Z,1009.64
2018-05-23T02:37:38.625Z,1009.63
2018-05-23T02:38:38.560Z,1009.60
2018-05-23T02:39:38.487Z,1009.59
2018-05-23T02:40:38.419Z,1009.59
2018-05-23T02:41:38.346Z,1009.59
2018-05-23T02:42:38.272Z,1009.57
2018-05-23T02:43:38.196Z,1009.58
2018-05-23T02:44:38.128Z,1009.58
2018-05-23T02:45:38.060Z,1009.58
2018-05-23T02:46:37.977Z,1009.64
2018-05-23T02:47:37.909Z,1009.63
2018-05-23T02:48:37.840Z,1009.67
2018-05-23T02:49:37.764Z,1009.62
2018-05-23T02:50:37.693Z,1009.64
2018-05-23T02:51:37.621Z,1009.67
2018-05-23T02:52:37.552Z,1009.70
2018-05-23T02:53:37.483Z,1009.67
2018-05-23T02:54:37.404Z,1009.68
2018-05-23T02:55:37.333Z,1009.73
2018-05-23T02:56:37.264Z,1009.66
2018-05-23T02:57:37.187Z,1009.69
2018-05-23T02:58:37.162Z,1009.61
2018-05-23T02:59:37.042Z,1009.61
2018-05-23T03:00:36.977Z,1009.64
2018-05-23T03:01:36.901Z,1009.65
2018-05-23T03:02:36.840Z,1009.65
2018-05-23T03:03:36.751Z,1009.69
2018-05-23T03:04:36.688Z,1009.70
2018-05-23T03:05:36.616Z,1009.70
2018-05-23T03:06:36.562Z,1009.71
2018-05-23T03:07:36.468Z,1009.72
2018-05-23T03:08:36.397Z,1009.73
2018-05-23T03:09:36.338Z,1009.74
2018-05-23T03:10:36.251Z,1009.75
2018-05-23T03:11:36.199Z,1009.74
2018-05-23T03:12:36.185Z,1009.76
2018-05-23T03:13:36.037Z,1009.74
2018-05-23T03:14:35.964Z,1009.73
2018-05-23T03:15:35.972Z,1009.77
2018-05-23T03:16:35.816Z,1009.74
2018-05-23T03:17:35.754Z,1009.81
2018-05-23T03:18:35.682Z,1009.86
2018-05-23T03:19:35.605Z,1009.86
2018-05-23T03:20:35.568Z,1009.86
2018-05-23T03:21:35.463Z,1009.86
2018-05-23T03:22:35.384Z,1009.92
2018-05-23T03:23:35.315Z,1009.94
2018-05-23T03:24:35.254Z,1009.92
2018-05-23T03:25:35.175Z,1009.98
2018-05-23T03:26:35.113Z,1010.01
2018-05-23T03:27:35.036Z,1009.98
2018-05-23T03:28:34.954Z,1009.99
2018-05-23T03:29:34.903Z,1010.00
2018-05-23T03:30:34.837Z,1009.98
2018-05-23T03:31:34.742Z,1009.94
2018-05-23T03:32:34.669Z,1009.97
2018-05-23T03:33:34.595Z,1010.00
2018-05-23T03:34:34.524Z,1010.00
2018-05-23T03:35:34.456Z,1010.03
2018-05-23T03:36:34.381Z,1010.02
2018-05-23T03:37:34.308Z,1010.04
2018-05-23T03:38:34.233Z,1010.03
2018-05-23T03:39:34.169Z,1010.04
2018-05-23T03:40:34.090Z,1010.01
2018-05-23T03:41:34.024Z,1010.04
2018-05-23T03:42:33.948Z,1010.01
2018-05-23T03:43:33.876Z,1010.05
2018-05-23T03:44:33.809Z,1010.07
2018-05-23T03:45:33.735Z,1010.04
2018-05-23T03:46:33.660Z,1010.06
2018-05-23T03:47:33.589Z,1010.06
2018-05-23T03:48:33.526Z,1010.05
2018-05-23T03:49:33.453Z,1010.08
2018-05-23T03:50:33.377Z,1010.06
2018-05-23T03:51:33.306Z,1010.10
2018-05-23T03:52:33.233Z,1010.08
2018-05-23T03:53:33.157Z,1010.07
2018-05-23T03:54:33.088Z,1010.11
2018-05-23T03:55:33.010Z,1010.08
2018-05-23T03:56:32.937Z,1010.10
2018-05-23T03:57:32.893Z,1010.10
2018-05-23T03:58:32.796Z,1010.11
2018-05-23T03:59:32.734Z,1010.10
2018-05-23T04:00:32.653Z,1010.14
2018-05-23T04:01:32.582Z,1010.16
2018-05-23T04:02:32.513Z,1010.21
2018-05-23T04:03:32.435Z,1010.24
2018-05-23T04:04:32.364Z,1010.25
2018-05-23T04:05:32.292Z,1010.20
2018-05-23T04:06:32.219Z,1010.23
2018-05-23T04:07:32.148Z,1010.26
2018-05-23T04:08:32.107Z,1010.20
2018-05-23T04:09:32.017Z,1010.20
2018-05-23T04:10:31.934Z,1010.22
2018-05-23T04:11:31.887Z,1010.19
2018-05-23T04:12:31.789Z,1010.20
2018-05-23T04:13:31.721Z,1010.20
2018-05-23T04:14:31.644Z,1010.25
2018-05-23T04:15:31.670Z,1010.22
2018-05-23T04:16:31.500Z,1010.22
2018-05-23T04:17:31.429Z,1010.21
2018-05-23T04:18:31.355Z,1010.20
2018-05-23T04:19:31.289Z,1010.26
2018-05-23T04:20:31.213Z,1010.27
2018-05-23T04:21:31.149Z,1010.21
2018-05-23T04:22:31.072Z,1010.25
2018-05-23T04:23:30.997Z,1010.23
2018-05-23T04:24:30.927Z,1010.25
2018-05-23T04:25:30.860Z,1010.26
2018-05-23T04:26:30.784Z,1010.29
2018-05-23T04:27:30.712Z,1010.31
2018-05-23T04:28:30.639Z,1010.30
2018-05-23T04:29:30.568Z,1010.33
2018-05-23T04:30:30.497Z,1010.30
2018-05-23T04:31:30.421Z,1010.32
2018-05-23T04:32:30.385Z,1010.31
2018-05-23T04:33:30.281Z,1010.27
2018-05-23T04:34:30.208Z,1010.27
2018-05-23T04:35:30.134Z,1010.31
2018-05-23T04:36:30.068Z,1010.30
2018-05-23T04:37:29.995Z,1010.31
2018-05-23T04:38:29.920Z,1010.37
2018-05-23T04:39:29.852Z,1010.31
2018-05-23T04:40:29.772Z,1010.30
2018-05-23T04:41:29.709Z,1010.30
2018-05-23T04:42:29.633Z,1010.31
2018-05-23T04:43:29.566Z,1010.34
2018-05-23T04:44:29.487Z,1010.33
2018-05-23T04:45:29.416Z,1010.35
2018-05-23T04:46:29.342Z,1010.36
2018-05-23T04:47:29.271Z,1010.33
2018-05-23T04:48:29.201Z,1010.36
2018-05-23T04:49:29.128Z,1010.40
2018-05-23T04:50:29.055Z,1010.40
2018-05-23T04:51:28.987Z,1010.40
2018-05-23T04:52:28.923Z,1010.44
2018-05-23T04:53:28.864Z,1010.40
2018-05-23T04:54:28.771Z,1010.41
2018-05-23T04:55:28.707Z,1010.45
2018-05-23T04:56:28.662Z,1010.41
2018-05-23T04:57:28.553Z,1010.39
2018-05-23T04:58:28.481Z,1010.43
2018-05-23T04:59:28.413Z,1010.42
2018-05-23T05:00:28.337Z,1010.42
2018-05-23T05:01:28.265Z,1010.45
2018-05-23T05:02:28.197Z,1010.45
2018-05-23T05:03:28.125Z,1010.47
2018-05-23T05:04:28.046Z,1010.52
2018-05-23T05:05:27.984Z,1010.51
2018-05-23T05:06:27.907Z,1010.50
2018-05-23T05:07:27.832Z,1010.53
2018-05-23T05:08:27.779Z,1010.58
2018-05-23T05:09:27.695Z,1010.64
2018-05-23T05:10:27.629Z,1010.65
2018-05-23T05:11:27.551Z,1010.71
2018-05-23T05:12:27.479Z,1010.69
2018-05-23T05:13:27.404Z,1010.70
2018-05-23T05:14:27.345Z,1010.70
2018-05-23T05:15:27.259Z,1010.74
2018-05-23T05:16:27.189Z,1010.74
2018-05-23T05:17:27.119Z,1010.78
2018-05-23T05:18:27.051Z,1010.81
2018-05-23T05:19:26.974Z,1010.84
2018-05-23T05:20:26.903Z,1010.84
2018-05-23T05:21:26.835Z,1010.86
2018-05-23T05:22:26.763Z,1010.88
2018-05-23T05:23:26.689Z,1010.91
2018-05-23T05:24:26.625Z,1010.90
2018-05-23T05:25:26.546Z,1010.95
2018-05-23T05:26:26.473Z,1010.96
2018-05-23T05:27:26.401Z,1010.97
2018-05-23T05:28:26.334Z,1010.97
2018-05-23T05:29:26.270Z,1011.02
2018-05-23T05:30:26.204Z,1011.02
2018-05-23T05:31:26.116Z,1011.03
2018-05-23T05:32:26.041Z,1011.01
2018-05-23T05:33:25.971Z,1011.01
2018-05-23T05:34:25.898Z,1011.06
2018-05-23T05:35:25.828Z,1011.11
2018-05-23T05:36:25.778Z,1011.10
2018-05-23T05:37:25.742Z,1011.10
2018-05-23T05:38:25.619Z,1011.12
2018-05-23T05:39:25.613Z,1011.10
2018-05-23T05:40:25.488Z,1011.14
2018-05-23T05:41:25.402Z,1011.13
2018-05-23T05:42:25.331Z,1011.12
2018-05-23T05:43:25.255Z,1011.19
2018-05-23T05:44:25.222Z,1011.17
2018-05-23T05:45:25.117Z,1011.22
2018-05-23T05:46:25.042Z,1011.16
2018-05-23T05:47:24.980Z,1011.18
2018-05-23T05:48:24.919Z,1011.21
2018-05-23T05:49:24.831Z,1011.24
2018-05-23T05:50:24.758Z,1011.23
2018-05-23T05:51:24.697Z,1011.23
2018-05-23T05:52:24.611Z,1011.23
2018-05-23T05:53:24.538Z,1011.25
2018-05-23T05:54:24.473Z,1011.29
2018-05-23T05:55:24.412Z,1011.30
2018-05-23T05:56:24.328Z,1011.28
2018-05-23T05:57:24.260Z,1011.32
2018-05-23T05:58:24.181Z,1011.30
2018-05-23T05:59:24.120Z,1011.35
2018-05-23T06:00:24.043Z,1011.37
2018-05-23T06:01:23.971Z,1011.40
2018-05-23T06:02:23.896Z,1011.39
2018-05-23T06:03:23.831Z,1011.41
2018-05-23T06:04:23.756Z,1011.45
2018-05-23T06:05:23.686Z,1011.47
2018-05-23T06:06:23.621Z,1011.46
2018-05-23T06:07:23.559Z,1011.49
2018-05-23T06:08:23.477Z,1011.47
2018-05-23T06:09:23.465Z,1011.54
2018-05-23T06:10:23.333Z,1011.50
2018-05-23T06:11:23.255Z,1011.56
2018-05-23T06:12:23.198Z,1011.56
2018-05-23T06:13:23.114Z,1011.57
2018-05-23T06:14:23.063Z,1011.62
2018-05-23T06:15:22.972Z,1011.59
2018-05-23T06:16:22.914Z,1011.60
2018-05-23T06:17:22.832Z,1011.65
2018-05-23T06:18:22.761Z,1011.61
2018-05-23T06:19:22.691Z,1011.59
2018-05-23T06:20:22.631Z,1011.59
2018-05-23T06:21:22.551Z,1011.61
2018-05-23T06:22:22.493Z,1011.57
2018-05-23T06:23:22.491Z,1011.58
2018-05-23T06:24:22.353Z,1011.59
2018-05-23T06:25:22.268Z,1011.63
2018-05-23T06:26:22.194Z,1011.64
2018-05-23T06:27:22.123Z,1011.62
2018-05-23T06:28:22.057Z,1011.59
2018-05-23T06:29:21.985Z,1011.59
2018-05-23T06:30:21.996Z,1011.62
2018-05-23T06:31:21.843Z,1011.60
2018-05-23T06:32:21.776Z,1011.62
2018-05-23T06:33:21.699Z,1011.64
2018-05-23T06:34:21.629Z,1011.65
2018-05-23T06:35:21.573Z,1011.66
2018-05-23T06:36:21.487Z,1011.63
2018-05-23T06:37:21.421Z,1011.62
2018-05-23T06:38:21.347Z,1011.63
2018-05-23T06:39:21.287Z,1011.66
2018-05-23T06:40:21.218Z,1011.68
2018-05-23T06:41:21.135Z,1011.69
2018-05-23T06:42:21.064Z,1011.69
2018-05-23T06:43:20.995Z,1011.64
2018-05-23T06:44:20.927Z,1011.65
2018-05-23T06:45:20.854Z,1011.67
2018-05-23T06:46:20.780Z,1011.70
2018-05-23T06:47:20.710Z,1011.67
2018-05-23T06:48:20.644Z,1011.72
2018-05-23T06:49:20.576Z,1011.74
2018-05-23T06:50:20.499Z,1011.73
2018-05-23T06:51:20.427Z,1011.79
2018-05-23T06:52:20.379Z,1011.71
2018-05-23T06:53:20.370Z,1011.69
2018-05-23T06:54:20.219Z,1011.74
2018-05-23T06:55:20.145Z,1011.72
2018-05-23T06:56:20.078Z,1011.69
2018-05-23T06:57:20.008Z,1011.70
2018-05-23T06:58:19.937Z,1011.71
2018-05-23T06:59:19.865Z,1011.75
2018-05-23T07:00:19.798Z,1011.74
2018-05-23T07:01:19.797Z,1011.73
2018-05-23T07:02:19.661Z,1011.72
2018-05-23T07:03:19.594Z,1011.77
2018-05-23T07:04:19.516Z,1011.72
2018-05-23T07:05:19.446Z,1011.74
2018-05-23T07:06:19.377Z,1011.78
2018-05-23T07:07:19.303Z,1011.79
2018-05-23T07:08:19.236Z,1011.83
2018-05-23T07:09:19.164Z,1011.81
2018-05-23T07:10:19.092Z,1011.81
2018-05-23T07:11:19.023Z,1011.86
2018-05-23T07:12:18.953Z,1011.85
2018-05-23T07:13:18.886Z,1011.85
2018-05-23T07:14:18.818Z,1011.86
2018-05-23T07:15:18.742Z,1011.92
2018-05-23T07:16:18.675Z,1011.89
2018-05-23T07:17:18.601Z,1011.90
2018-05-23T07:18:18.533Z,1011.91
2018-05-23T07:19:18.464Z,1011.94
2018-05-23T07:20:18.397Z,1011.97
2018-05-23T07:21:18.323Z,1011.97
2018-05-23T07:22:18.257Z,1011.99
2018-05-23T07:23:18.181Z,1011.97
2018-05-23T07:24:18.111Z,1012.06
2018-05-23T07:25:18.051Z,1012.03
2018-05-23T07:26:17.970Z,1012.04
2018-05-23T07:27:17.903Z,1012.10
2018-05-23T07:28:17.832Z,1012.10
2018-05-23T07:29:17.762Z,1012.12
2018-05-23T07:30:17.690Z,1012.11
2018-05-23T07:31:17.619Z,1012.14
2018-05-23T07:32:17.551Z,1012.17
2018-05-23T07:33:17.487Z,1012.17
2018-05-23T07:34:17.409Z,1012.17
2018-05-23T07:35:17.341Z,1012.17
2018-05-23T07:36:17.273Z,1012.15
2018-05-23T07:37:17.206Z,1012.17
2018-05-23T07:38:17.217Z,1012.16
2018-05-23T07:39:17.061Z,1012.19
2018-05-23T07:40:16.991Z,1012.19
2018-05-23T07:41:16.945Z,1012.18
2018-05-23T07:42:16.864Z,1012.16
2018-05-23T07:43:16.779Z,1012.16
2018-05-23T07:44:16.716Z,1012.21
2018-05-23T07:45:16.648Z,1012.23
2018-05-23T07:46:16.571Z,1012.22
2018-05-23T07:47:16.507Z,1012.24
2018-05-23T07:48:16.434Z,1012.23
2018-05-23T07:49:16.376Z,1012.24
2018-05-23T07:50:16.290Z,1012.23
2018-05-23T07:51:16.228Z,1012.21
2018-05-23T07:52:16.172Z,1012.25
2018-05-23T07:53:16.085Z,1012.21
2018-05-23T07:54:16.016Z,1012.22
2018-05-23T07:55:15.949Z,1012.20
2018-05-23T07:56:15.876Z,1012.20
2018-05-23T07:57:15.816Z,1012.20
2018-05-23T07:58:15.747Z,1012.21
2018-05-23T07:59:15.669Z,1012.22
2018-05-23T08:00:15.599Z,1012.23
2018-05-23T08:01:15.525Z,1012.27
2018-05-23T08:02:15.477Z,1012.28
2018-05-23T08:03:15.391Z,1012.29
2018-05-23T08:04:15.316Z,1012.29
2018-05-23T08:05:15.278Z,1012.32
2018-05-23T08:06:15.184Z,1012.33
2018-05-23T08:07:15.110Z,1012.29
2018-05-23T08:08:15.045Z,1012.29
2018-05-23T08:09:14.976Z,1012.30
2018-05-23T08:10:14.919Z,1012.26
2018-05-23T08:11:14.855Z,1012.32
2018-05-23T08:12:14.763Z,1012.31
2018-05-23T08:13:14.715Z,1012.30
2018-05-23T08:14:14.623Z,1012.29
2018-05-23T08:15:14.559Z,1012.29
2018-05-23T08:16:14.489Z,1012.34
2018-05-23T08:17:14.442Z,1012.33
2018-05-23T08:18:14.355Z,1012.37
2018-05-23T08:19:14.285Z,1012.33
2018-05-23T08:20:14.212Z,1012.36
2018-05-23T08:21:14.146Z,1012.35
2018-05-23T08:22:14.078Z,1012.36
2018-05-23T08:23:14.009Z,1012.40
2018-05-23T08:24:13.938Z,1012.44
2018-05-23T08:25:13.876Z,1012.42
2018-05-23T08:26:13.800Z,1012.43
2018-05-23T08:27:13.736Z,1012.41
2018-05-23T08:28:13.661Z,1012.41
2018-05-23T08:29:13.596Z,1012.44
2018-05-23T08:30:13.527Z,1012.47
2018-05-23T08:31:13.456Z,1012.47
2018-05-23T08:32:13.396Z,1012.48
2018-05-23T08:33:13.350Z,1012.52
2018-05-23T08:34:13.250Z,1012.45
2018-05-23T08:35:13.184Z,1012.47
2018-05-23T08:36:13.134Z,1012.43
2018-05-23T08:37:13.067Z,1012.41
2018-05-23T08:38:13.056Z,1012.41
2018-05-23T08:39:12.933Z,1012.45
2018-05-23T08:40:12.848Z,1012.44
2018-05-23T08:41:12.771Z,1012.39
2018-05-23T08:42:12.711Z,1012.38
2018-05-23T08:43:12.638Z,1012.44
2018-05-23T08:44:12.610Z,1012.41
2018-05-23T08:45:12.512Z,1012.44
2018-05-23T08:46:12.438Z,1012.43
2018-05-23T08:47:12.388Z,1012.47
2018-05-23T08:48:12.303Z,1012.46
2018-05-23T08:49:12.242Z,1012.49
2018-05-23T08:50:12.170Z,1012.49
2018-05-23T08:51:12.110Z,1012.50
2018-05-23T08:52:12.037Z,1012.49
2018-05-23T08:53:11.972Z,1012.48
2018-05-23T08:54:11.897Z,1012.53
2018-05-23T08:55:11.890Z,1012.54
2018-05-23T08:56:11.769Z,1012.52
2018-05-23T08:57:11.697Z,1012.56
2018-05-23T08:58:11.634Z,1012.59
2018-05-23T08:59:11.561Z,1012.61
2018-05-23T09:00:11.501Z,1012.55
2018-05-23T09:01:11.434Z,1012.55
2018-05-23T09:02:11.360Z,1012.54
2018-05-23T09:03:11.291Z,1012.57
2018-05-23T09:04:11.223Z,1012.60
2018-05-23T09:05:11.156Z,1012.56
2018-05-23T09:06:11.090Z,1012.62
2018-05-23T09:07:11.022Z,1012.60
2018-05-23T09:08:10.950Z,1012.61
2018-05-23T09:09:10.883Z,1012.60
2018-05-23T09:10:10.813Z,1012.65
2018-05-23T09:11:10.770Z,1012.58
2018-05-23T09:12:10.775Z,1012.63
2018-05-23T09:13:10.619Z,1012.66
2018-05-23T09:14:10.545Z,1012.68
2018-05-23T09:15:10.493Z,1012.64
2018-05-23T09:16:10.410Z,1012.68
2018-05-23T09:17:10.346Z,1012.67
2018-05-23T09:18:10.281Z,1012.69
2018-05-23T09:19:10.214Z,1012.68
2018-05-23T09:20:10.144Z,1012.70
2018-05-23T09:21:10.089Z,1012.71
2018-05-23T09:22:10.017Z,1012.74
2018-05-23T09:23:09.945Z,1012.75
2018-05-23T09:24:09.883Z,1012.74
2018-05-23T09:25:09.817Z,1012.74
2018-05-23T09:26:09.747Z,1012.75
2018-05-23T09:27:09.682Z,1012.74
2018-05-23T09:28:09.615Z,1012.78
2018-05-23T09:29:09.552Z,1012.78
2018-05-23T09:30:09.488Z,1012.78
2018-05-23T09:31:09.426Z,1012.80
2018-05-23T09:32:09.400Z,1012.77
2018-05-23T09:33:09.284Z,1012.81
2018-05-23T09:34:09.214Z,1012.81
2018-05-23T09:35:09.149Z,1012.83
2018-05-23T09:36:09.081Z,1012.82
2018-05-23T09:37:09.029Z,1012.82
2018-05-23T09:38:08.941Z,1012.84
2018-05-23T09:39:08.891Z,1012.89
2018-05-23T09:40:08.811Z,1012.87
2018-05-23T09:41:08.742Z,1012.89
2018-05-23T09:42:08.756Z,1012.90
2018-05-23T09:43:08.609Z,1012.92
2018-05-23T09:44:08.549Z,1012.91
2018-05-23T09:45:08.495Z,1012.97
2018-05-23T09:46:08.408Z,1012.96
2018-05-23T09:47:08.343Z,1012.94
2018-05-23T09:48:08.283Z,1012.96
2018-05-23T09:49:08.211Z,1012.98
2018-05-23T09:50:08.140Z,1012.99
2018-05-23T09:51:08.089Z,1013.00
2018-05-23T09:52:08.016Z,1013.00
2018-05-23T09:53:07.941Z,1012.94
2018-05-23T09:54:07.865Z,1013.00
2018-05-23T09:55:07.899Z,1013.02
2018-05-23T09:56:07.735Z,1013.00
2018-05-23T09:57:07.671Z,1013.01
2018-05-23T09:58:07.598Z,1013.00
2018-05-23T09:59:07.534Z,1013.02
2018-05-23T10:00:07.480Z,1013.01
2018-05-23T10:01:07.398Z,1013.01
2018-05-23T10:02:07.345Z,1013.02
2018-05-23T10:03:07.265Z,1013.03
2018-05-23T10:04:07.196Z,1013.05
2018-05-23T10:05:07.130Z,1013.03
2018-05-23T10:06:07.066Z,1013.03
2018-05-23T10:07:06.993Z,1013.04
2018-05-23T10:08:06.931Z,1013.06
2018-05-23T10:09:06.867Z,1013.08
2018-05-23T10:10:06.793Z,1013.09
2018-05-23T10:11:06.725Z,1013.06
2018-05-23T10:12:06.663Z,1013.11
2018-05-23T10:13:06.603Z,1013.09
2018-05-23T10:14:06.523Z,1013.16
2018-05-23T10:15:06.475Z,1013.13
2018-05-23T10:16:06.382Z,1013.13
2018-05-23T10:17:06.334Z,1013.16
2018-05-23T10:18:06.255Z,1013.19
2018-05-23T10:19:06.194Z,1013.21
2018-05-23T10:20:06.121Z,1013.21
2018-05-23T10:21:06.049Z,1013.20
2018-05-23T10:22:05.995Z,1013.24
2018-05-23T10:23:05.913Z,1013.26
2018-05-23T10:24:05.853Z,1013.29
2018-05-23T10:25:05.790Z,1013.25
2018-05-23T10:26:05.730Z,1013.27
2018-05-23T10:27:05.637Z,1013.30
2018-05-23T10:28:05.590Z,1013.30
2018-05-23T10:29:05.511Z,1013.28
2018-05-23T10:30:05.452Z,1013.33
2018-05-23T10:31:05.374Z,1013.32
2018-05-23T10:32:05.323Z,1013.30
2018-05-23T10:33:05.252Z,1013.30
2018-05-23T10:34:05.171Z,1013.31
2018-05-23T10:35:05.111Z,1013.31
2018-05-23T10:36:05.041Z,1013.35
2018-05-23T10:37:04.978Z,1013.37
2018-05-23T10:38:04.893Z,1013.33
2018-05-23T10:39:04.879Z,1013.35
2018-05-23T10:40:04.765Z,1013.37
2018-05-23T10:41:04.698Z,1013.33
2018-05-23T10:42:04.624Z,1013.35
2018-05-23T10:43:04.563Z,1013.37
2018-05-23T10:44:04.585Z,1013.41
2018-05-23T10:45:04.427Z,1013.45
2018-05-23T10:46:04.353Z,1013.42
2018-05-23T10:47:04.283Z,1013.43
2018-05-23T10:48:04.217Z,1013.40
2018-05-23T10:49:04.147Z,1013.43
2018-05-23T10:50:04.080Z,1013.48
2018-05-23T10:51:04.011Z,1013.49
2018-05-23T10:52:04.028Z,1013.50
2018-05-23T10:53:03.877Z,1013.48
2018-05-23T10:54:03.805Z,1013.52
2018-05-23T10:55:03.738Z,1013.50
2018-05-23T10:56:03.665Z,1013.50
2018-05-23T10:57:03.653Z,1013.49
2018-05-23T10:58:03.525Z,1013.48
2018-05-23T10:59:03.460Z,1013.46
2018-05-23T11:00:03.457Z,1013.46
2018-05-23T11:01:03.327Z,1013.47
2018-05-23T11:02:03.263Z,1013.49
2018-05-23T11:03:03.288Z,1013.40
2018-05-23T11:04:03.116Z,1013.44
2018-05-23T11:05:03.046Z,1013.43
2018-05-23T11:06:02.980Z,1013.43
2018-05-23T11:07:02.912Z,1013.44
2018-05-23T11:08:02.839Z,1013.44
2018-05-23T11:09:02.786Z,1013.48
2018-05-23T11:10:02.704Z,1013.45
2018-05-23T11:11:02.655Z,1013.47
2018-05-23T11:12:02.563Z,1013.51
2018-05-23T11:13:02.503Z,1013.58
2018-05-23T11:14:02.429Z,1013.55
2018-05-23T11:15:02.351Z,1013.55
2018-05-23T11:16:02.283Z,1013.64
2018-05-23T11:17:02.215Z,1013.59
2018-05-23T11:18:02.147Z,1013.64
2018-05-23T11:19:02.076Z,1013.64
2018-05-23T11:20:02.008Z,1013.66
2018-05-23T11:21:01.929Z,1013.66
2018-05-23T11:22:01.891Z,1013.68
2018-05-23T11:23:01.796Z,1013.64
2018-05-23T11:24:01.730Z,1013.64
2018-05-23T11:25:01.656Z,1013.66
2018-05-23T11:26:01.591Z,1013.70
2018-05-23T11:27:01.517Z,1013.65
2018-05-23T11:28:01.451Z,1013.67
2018-05-23T11:29:01.375Z,1013.67
2018-05-23T11:30:01.313Z,1013.71
2018-05-23T11:31:01.242Z,1013.64
2018-05-23T11:32:01.296Z,1013.63
2018-05-23T11:33:01.142Z,1013.68
2018-05-23T11:34:01.364Z,1013.64
2018-05-23T11:35:01.337Z,1013.63
2018-05-23T11:36:01.063Z,1013.59
2018-05-23T11:37:00.903Z,1013.63
2018-05-23T11:38:00.814Z,1013.59
2018-05-23T11:39:00.691Z,1013.56
2018-05-23T11:40:00.655Z,1013.56
2018-05-23T11:41:00.625Z,1013.56
2018-05-23T11:42:00.578Z,1013.56
2018-05-23T11:43:00.447Z,1013.48
2018-05-23T11:44:00.343Z,1013.51
2018-05-23T11:45:00.421Z,1013.48
2018-05-23T11:46:00.205Z,1013.47
2018-05-23T11:47:00.127Z,1013.49
2018-05-23T11:48:00.066Z,1013.45
2018-05-23T11:49:00.004Z,1013.43
2018-05-23T11:49:59.969Z,1013.44
2018-05-23T11:50:59.857Z,1013.42
2018-05-23T11:51:59.791Z,1013.38
2018-05-23T11:52:59.722Z,1013.39
2018-05-23T11:53:59.655Z,1013.37
2018-05-23T11:54:59.604Z,1013.39
2018-05-23T11:55:59.518Z,1013.36
2018-05-23T11:56:59.455Z,1013.33
2018-05-23T11:57:59.377Z,1013.31
2018-05-23T11:58:59.308Z,1013.29
2018-05-23T11:59:59.234Z,1013.34
2018-05-23T12:00:59.175Z,1013.32
2018-05-23T12:01:59.231Z,1013.31
2018-05-23T12:02:59.029Z,1013.33
2018-05-23T12:03:58.962Z,1013.32
2018-05-23T12:04:58.896Z,1013.28